sensor_id;sensor_type;location;lat;lon;timestamp;P1;durP1;ratioP1;P2;durP2;ratioP2
32319;SDS011;19080;51.750;5.888;2023-08-06T00:00:53;3.97;;;3.13;;
32319;SDS011;19080;51.750;5.888;2023-08-06T00:03:20;4.28;;;3.28;;
32319;SDS011;19080;51.750;5.888;2023-08-06T00:05:46;6.25;;;3.08;;
32319;SDS011;19080;51.750;5.888;2023-08-06T00:08:13;5.47;;;3.80;;
32319;SDS011;19080;51.750;5.888;2023-08-06T00:10:40;4.95;;;3.40;;
32319;SDS011;19080;51.750;5.888;2023-08-06T00:13:07;3.67;;;3.38;;
32319;SDS011;19080;51.750;5.888;2023-08-06T00:15:34;5.28;;;3.30;;
32319;SDS011;19080;51.750;5.888;2023-08-06T00:18:01;5.18;;;3.85;;
32319;SDS011;19080;51.750;5.888;2023-08-06T00:20:28;6.38;;;3.40;;
32319;SDS011;19080;51.750;5.888;2023-08-06T00:22:54;9.27;;;3.60;;
32319;SDS011;19080;51.750;5.888;2023-08-06T00:25:21;5.55;;;3.25;;
32319;SDS011;19080;51.750;5.888;2023-08-06T00:27:47;4.63;;;3.35;;
32319;SDS011;19080;51.750;5.888;2023-08-06T00:30:14;5.10;;;3.80;;
32319;SDS011;19080;51.750;5.888;2023-08-06T00:32:41;6.18;;;3.70;;
32319;SDS011;19080;51.750;5.888;2023-08-06T00:35:07;6.43;;;3.95;;
32319;SDS011;19080;51.750;5.888;2023-08-06T00:37:34;5.82;;;3.53;;
32319;SDS011;19080;51.750;5.888;2023-08-06T00:40:01;5.13;;;4.03;;
32319;SDS011;19080;51.750;5.888;2023-08-06T00:42:27;5.18;;;3.72;;
32319;SDS011;19080;51.750;5.888;2023-08-06T00:44:54;6.53;;;3.42;;
32319;SDS011;19080;51.750;5.888;2023-08-06T00:47:20;5.15;;;3.85;;
32319;SDS011;19080;51.750;5.888;2023-08-06T00:49:47;6.25;;;4.00;;
32319;SDS011;19080;51.750;5.888;2023-08-06T00:52:14;4.57;;;3.80;;
32319;SDS011;19080;51.750;5.888;2023-08-06T00:54:41;4.20;;;3.80;;
32319;SDS011;19080;51.750;5.888;2023-08-06T00:57:07;7.63;;;4.07;;
32319;SDS011;19080;51.750;5.888;2023-08-06T00:59:35;5.82;;;4.20;;
32319;SDS011;19080;51.750;5.888;2023-08-06T01:02:03;5.22;;;4.15;;
32319;SDS011;19080;51.750;5.888;2023-08-06T01:04:30;5.70;;;4.32;;
32319;SDS011;19080;51.750;5.888;2023-08-06T01:07:06;5.50;;;4.18;;
32319;SDS011;19080;51.750;5.888;2023-08-06T01:09:45;6.85;;;4.60;;
32319;SDS011;19080;51.750;5.888;2023-08-06T01:13:05;4.13;;;3.58;;
32319;SDS011;19080;51.750;5.888;2023-08-06T01:15:19;6.05;;;4.00;;
32319;SDS011;19080;51.750;5.888;2023-08-06T01:17:49;6.10;;;4.22;;
32319;SDS011;19080;51.750;5.888;2023-08-06T01:20:16;4.43;;;3.67;;
32319;SDS011;19080;51.750;5.888;2023-08-06T01:22:43;7.28;;;4.10;;
32319;SDS011;19080;51.750;5.888;2023-08-06T01:25:10;4.43;;;4.03;;
32319;SDS011;19080;51.750;5.888;2023-08-06T01:27:49;4.70;;;4.20;;
32319;SDS011;19080;51.750;5.888;2023-08-06T01:30:16;4.57;;;3.80;;
32319;SDS011;19080;51.750;5.888;2023-08-06T01:32:44;5.70;;;4.13;;
32319;SDS011;19080;51.750;5.888;2023-08-06T01:35:15;6.23;;;3.97;;
32319;SDS011;19080;51.750;5.888;2023-08-06T01:37:43;6.03;;;4.25;;
32319;SDS011;19080;51.750;5.888;2023-08-06T01:40:11;4.07;;;3.45;;
32319;SDS011;19080;51.750;5.888;2023-08-06T01:42:38;4.78;;;3.75;;
32319;SDS011;19080;51.750;5.888;2023-08-06T01:45:07;3.92;;;3.38;;
32319;SDS011;19080;51.750;5.888;2023-08-06T01:47:35;4.93;;;3.65;;
32319;SDS011;19080;51.750;5.888;2023-08-06T01:50:02;4.78;;;3.97;;
32319;SDS011;19080;51.750;5.888;2023-08-06T01:52:29;4.65;;;3.13;;
32319;SDS011;19080;51.750;5.888;2023-08-06T01:54:56;5.32;;;3.30;;
32319;SDS011;19080;51.750;5.888;2023-08-06T01:57:22;4.70;;;3.20;;
32319;SDS011;19080;51.750;5.888;2023-08-06T01:59:49;6.00;;;3.40;;
32319;SDS011;19080;51.750;5.888;2023-08-06T02:02:16;4.03;;;3.22;;
32319;SDS011;19080;51.750;5.888;2023-08-06T02:04:43;4.97;;;3.45;;
32319;SDS011;19080;51.750;5.888;2023-08-06T02:07:11;3.90;;;3.47;;
32319;SDS011;19080;51.750;5.888;2023-08-06T02:09:38;4.13;;;3.42;;
32319;SDS011;19080;51.750;5.888;2023-08-06T02:12:05;4.65;;;3.90;;
32319;SDS011;19080;51.750;5.888;2023-08-06T02:14:32;5.72;;;3.78;;
32319;SDS011;19080;51.750;5.888;2023-08-06T02:16:59;7.93;;;3.63;;
32319;SDS011;19080;51.750;5.888;2023-08-06T02:19:25;4.68;;;3.67;;
32319;SDS011;19080;51.750;5.888;2023-08-06T02:21:52;4.00;;;3.50;;
32319;SDS011;19080;51.750;5.888;2023-08-06T02:24:21;6.20;;;3.95;;
32319;SDS011;19080;51.750;5.888;2023-08-06T02:26:47;4.40;;;3.17;;
32319;SDS011;19080;51.750;5.888;2023-08-06T02:29:17;4.45;;;3.67;;
32319;SDS011;19080;51.750;5.888;2023-08-06T02:31:44;7.70;;;3.83;;
32319;SDS011;19080;51.750;5.888;2023-08-06T02:34:11;6.80;;;4.30;;
32319;SDS011;19080;51.750;5.888;2023-08-06T02:36:37;3.83;;;3.45;;
32319;SDS011;19080;51.750;5.888;2023-08-06T02:39:05;4.20;;;3.50;;
32319;SDS011;19080;51.750;5.888;2023-08-06T02:41:32;4.65;;;3.90;;
32319;SDS011;19080;51.750;5.888;2023-08-06T02:43:58;4.90;;;3.70;;
32319;SDS011;19080;51.750;5.888;2023-08-06T02:46:25;7.00;;;3.80;;
32319;SDS011;19080;51.750;5.888;2023-08-06T02:48:52;4.55;;;3.53;;
32319;SDS011;19080;51.750;5.888;2023-08-06T02:51:18;6.78;;;3.95;;
32319;SDS011;19080;51.750;5.888;2023-08-06T02:53:45;3.70;;;3.40;;
32319;SDS011;19080;51.750;5.888;2023-08-06T02:56:15;4.65;;;3.38;;
32319;SDS011;19080;51.750;5.888;2023-08-06T02:58:51;4.40;;;3.53;;
32319;SDS011;19080;51.750;5.888;2023-08-06T03:01:28;5.55;;;3.75;;
32319;SDS011;19080;51.750;5.888;2023-08-06T03:04:01;6.35;;;3.53;;
32319;SDS011;19080;51.750;5.888;2023-08-06T03:06:35;5.05;;;3.95;;
32319;SDS011;19080;51.750;5.888;2023-08-06T03:09:02;5.35;;;4.03;;
32319;SDS011;19080;51.750;5.888;2023-08-06T03:11:29;4.82;;;3.65;;
32319;SDS011;19080;51.750;5.888;2023-08-06T03:14:03;4.18;;;3.75;;
32319;SDS011;19080;51.750;5.888;2023-08-06T03:16:30;5.68;;;4.22;;
32319;SDS011;19080;51.750;5.888;2023-08-06T03:18:58;4.53;;;3.67;;
32319;SDS011;19080;51.750;5.888;2023-08-06T03:21:25;4.47;;;3.83;;
32319;SDS011;19080;51.750;5.888;2023-08-06T03:23:52;5.55;;;4.28;;
32319;SDS011;19080;51.750;5.888;2023-08-06T03:26:22;5.00;;;3.70;;
32319;SDS011;19080;51.750;5.888;2023-08-06T03:28:49;5.90;;;4.00;;
32319;SDS011;19080;51.750;5.888;2023-08-06T03:31:16;5.55;;;3.92;;
32319;SDS011;19080;51.750;5.888;2023-08-06T03:33:44;5.13;;;4.50;;
32319;SDS011;19080;51.750;5.888;2023-08-06T03:36:17;7.32;;;4.68;;
32319;SDS011;19080;51.750;5.888;2023-08-06T03:38:44;5.40;;;4.28;;
32319;SDS011;19080;51.750;5.888;2023-08-06T03:41:13;6.07;;;4.38;;
32319;SDS011;19080;51.750;5.888;2023-08-06T03:43:40;5.50;;;4.38;;
32319;SDS011;19080;51.750;5.888;2023-08-06T03:46:11;4.95;;;4.40;;
32319;SDS011;19080;51.750;5.888;2023-08-06T03:48:38;4.78;;;4.15;;
32319;SDS011;19080;51.750;5.888;2023-08-06T03:51:04;6.20;;;4.63;;
32319;SDS011;19080;51.750;5.888;2023-08-06T03:53:31;8.48;;;5.05;;
32319;SDS011;19080;51.750;5.888;2023-08-06T03:55:58;6.22;;;5.63;;
32319;SDS011;19080;51.750;5.888;2023-08-06T03:58:27;11.40;;;5.68;;
32319;SDS011;19080;51.750;5.888;2023-08-06T04:01:00;6.03;;;5.30;;
32319;SDS011;19080;51.750;5.888;2023-08-06T04:03:34;5.90;;;5.40;;
32319;SDS011;19080;51.750;5.888;2023-08-06T04:06:02;8.18;;;5.88;;
32319;SDS011;19080;51.750;5.888;2023-08-06T04:08:29;8.02;;;5.43;;
32319;SDS011;19080;51.750;5.888;2023-08-06T04:10:56;8.88;;;5.72;;
32319;SDS011;19080;51.750;5.888;2023-08-06T04:13:22;8.43;;;5.35;;
32319;SDS011;19080;51.750;5.888;2023-08-06T04:15:49;8.65;;;6.45;;
32319;SDS011;19080;51.750;5.888;2023-08-06T04:18:16;6.55;;;5.90;;
32319;SDS011;19080;51.750;5.888;2023-08-06T04:20:43;8.98;;;6.07;;
32319;SDS011;19080;51.750;5.888;2023-08-06T04:23:11;11.27;;;7.63;;
32319;SDS011;19080;51.750;5.888;2023-08-06T04:25:39;8.82;;;7.43;;
32319;SDS011;19080;51.750;5.888;2023-08-06T04:28:06;9.70;;;7.90;;
32319;SDS011;19080;51.750;5.888;2023-08-06T04:30:33;9.60;;;8.60;;
32319;SDS011;19080;51.750;5.888;2023-08-06T04:33:01;9.27;;;8.02;;
32319;SDS011;19080;51.750;5.888;2023-08-06T04:35:28;8.90;;;8.00;;
32319;SDS011;19080;51.750;5.888;2023-08-06T04:37:55;11.38;;;8.60;;
32319;SDS011;19080;51.750;5.888;2023-08-06T04:40:22;10.57;;;9.45;;
32319;SDS011;19080;51.750;5.888;2023-08-06T04:42:49;11.32;;;9.68;;
32319;SDS011;19080;51.750;5.888;2023-08-06T04:45:16;12.23;;;9.85;;
32319;SDS011;19080;51.750;5.888;2023-08-06T04:47:43;11.57;;;10.38;;
32319;SDS011;19080;51.750;5.888;2023-08-06T04:50:10;11.77;;;10.57;;
32319;SDS011;19080;51.750;5.888;2023-08-06T04:52:37;13.05;;;11.68;;
32319;SDS011;19080;51.750;5.888;2023-08-06T04:55:04;17.70;;;12.80;;
32319;SDS011;19080;51.750;5.888;2023-08-06T04:57:32;14.43;;;11.43;;
32319;SDS011;19080;51.750;5.888;2023-08-06T04:59:59;13.95;;;12.43;;
32319;SDS011;19080;51.750;5.888;2023-08-06T05:02:25;14.95;;;12.13;;
32319;SDS011;19080;51.750;5.888;2023-08-06T05:04:52;14.35;;;12.52;;
32319;SDS011;19080;51.750;5.888;2023-08-06T05:07:19;14.95;;;13.45;;
32319;SDS011;19080;51.750;5.888;2023-08-06T05:09:45;13.82;;;12.52;;
32319;SDS011;19080;51.750;5.888;2023-08-06T05:12:12;18.85;;;15.60;;
32319;SDS011;19080;51.750;5.888;2023-08-06T05:14:38;14.10;;;12.70;;
32319;SDS011;19080;51.750;5.888;2023-08-06T05:17:05;16.05;;;14.32;;
32319;SDS011;19080;51.750;5.888;2023-08-06T05:19:32;13.57;;;12.25;;
32319;SDS011;19080;51.750;5.888;2023-08-06T05:21:58;17.40;;;12.30;;
32319;SDS011;19080;51.750;5.888;2023-08-06T05:24:25;13.70;;;12.23;;
32319;SDS011;19080;51.750;5.888;2023-08-06T05:26:51;12.90;;;11.68;;
32319;SDS011;19080;51.750;5.888;2023-08-06T05:29:18;13.35;;;12.05;;
32319;SDS011;19080;51.750;5.888;2023-08-06T05:31:45;13.80;;;12.30;;
32319;SDS011;19080;51.750;5.888;2023-08-06T05:34:11;12.68;;;11.38;;
32319;SDS011;19080;51.750;5.888;2023-08-06T05:36:38;14.18;;;12.70;;
32319;SDS011;19080;51.750;5.888;2023-08-06T05:39:05;14.55;;;11.38;;
32319;SDS011;19080;51.750;5.888;2023-08-06T05:41:31;12.15;;;10.82;;
32319;SDS011;19080;51.750;5.888;2023-08-06T05:43:58;11.13;;;10.10;;
32319;SDS011;19080;51.750;5.888;2023-08-06T05:46:27;16.27;;;11.93;;
32319;SDS011;19080;51.750;5.888;2023-08-06T05:48:53;10.93;;;9.82;;
32319;SDS011;19080;51.750;5.888;2023-08-06T05:51:20;12.85;;;11.13;;
32319;SDS011;19080;51.750;5.888;2023-08-06T05:53:47;12.52;;;11.23;;
32319;SDS011;19080;51.750;5.888;2023-08-06T05:56:15;13.07;;;10.20;;
32319;SDS011;19080;51.750;5.888;2023-08-06T05:58:42;10.48;;;9.38;;
32319;SDS011;19080;51.750;5.888;2023-08-06T06:01:08;11.77;;;9.07;;
32319;SDS011;19080;51.750;5.888;2023-08-06T06:03:35;10.43;;;9.35;;
32319;SDS011;19080;51.750;5.888;2023-08-06T06:06:02;13.73;;;10.15;;
32319;SDS011;19080;51.750;5.888;2023-08-06T06:08:28;13.63;;;9.95;;
32319;SDS011;19080;51.750;5.888;2023-08-06T06:10:55;12.38;;;9.77;;
32319;SDS011;19080;51.750;5.888;2023-08-06T06:13:21;9.05;;;8.07;;
32319;SDS011;19080;51.750;5.888;2023-08-06T06:15:49;8.13;;;7.15;;
32319;SDS011;19080;51.750;5.888;2023-08-06T06:18:15;8.48;;;7.68;;
32319;SDS011;19080;51.750;5.888;2023-08-06T06:20:42;10.07;;;8.13;;
32319;SDS011;19080;51.750;5.888;2023-08-06T06:23:09;10.15;;;8.15;;
32319;SDS011;19080;51.750;5.888;2023-08-06T06:25:35;9.63;;;8.60;;
32319;SDS011;19080;51.750;5.888;2023-08-06T06:28:02;12.18;;;8.18;;
32319;SDS011;19080;51.750;5.888;2023-08-06T06:30:29;7.22;;;6.53;;
32319;SDS011;19080;51.750;5.888;2023-08-06T06:32:55;6.90;;;5.82;;
32319;SDS011;19080;51.750;5.888;2023-08-06T06:35:22;4.82;;;4.28;;
32319;SDS011;19080;51.750;5.888;2023-08-06T06:37:49;6.47;;;5.03;;
32319;SDS011;19080;51.750;5.888;2023-08-06T06:40:15;9.50;;;6.45;;
32319;SDS011;19080;51.750;5.888;2023-08-06T06:42:42;8.73;;;7.05;;
32319;SDS011;19080;51.750;5.888;2023-08-06T06:45:09;8.15;;;5.43;;
32319;SDS011;19080;51.750;5.888;2023-08-06T06:47:36;6.80;;;5.55;;
32319;SDS011;19080;51.750;5.888;2023-08-06T06:50:02;6.40;;;5.80;;
32319;SDS011;19080;51.750;5.888;2023-08-06T06:52:29;9.70;;;5.43;;
32319;SDS011;19080;51.750;5.888;2023-08-06T06:54:56;9.50;;;6.57;;
32319;SDS011;19080;51.750;5.888;2023-08-06T06:57:23;10.82;;;5.88;;
32319;SDS011;19080;51.750;5.888;2023-08-06T06:59:49;7.40;;;6.63;;
32319;SDS011;19080;51.750;5.888;2023-08-06T07:02:16;8.07;;;7.03;;
32319;SDS011;19080;51.750;5.888;2023-08-06T07:04:42;9.52;;;7.35;;
32319;SDS011;19080;51.750;5.888;2023-08-06T07:07:09;9.07;;;7.53;;
32319;SDS011;19080;51.750;5.888;2023-08-06T07:09:36;10.43;;;8.25;;
32319;SDS011;19080;51.750;5.888;2023-08-06T07:12:03;14.07;;;9.20;;
32319;SDS011;19080;51.750;5.888;2023-08-06T07:14:30;10.25;;;7.50;;
32319;SDS011;19080;51.750;5.888;2023-08-06T07:16:56;13.48;;;9.23;;
32319;SDS011;19080;51.750;5.888;2023-08-06T07:19:23;10.07;;;8.93;;
32319;SDS011;19080;51.750;5.888;2023-08-06T07:21:50;9.23;;;8.32;;
32319;SDS011;19080;51.750;5.888;2023-08-06T07:24:17;10.65;;;9.65;;
32319;SDS011;19080;51.750;5.888;2023-08-06T07:26:44;14.23;;;9.30;;
32319;SDS011;19080;51.750;5.888;2023-08-06T07:29:10;12.25;;;11.15;;
32319;SDS011;19080;51.750;5.888;2023-08-06T07:31:37;13.57;;;11.95;;
32319;SDS011;19080;51.750;5.888;2023-08-06T07:34:04;11.45;;;10.35;;
32319;SDS011;19080;51.750;5.888;2023-08-06T07:36:30;12.48;;;10.43;;
32319;SDS011;19080;51.750;5.888;2023-08-06T07:38:58;11.55;;;10.27;;
32319;SDS011;19080;51.750;5.888;2023-08-06T07:41:24;10.32;;;9.35;;
32319;SDS011;19080;51.750;5.888;2023-08-06T07:43:51;11.48;;;9.45;;
32319;SDS011;19080;51.750;5.888;2023-08-06T07:46:18;10.85;;;9.85;;
32319;SDS011;19080;51.750;5.888;2023-08-06T07:48:44;11.40;;;10.30;;
32319;SDS011;19080;51.750;5.888;2023-08-06T07:51:11;13.48;;;11.38;;
32319;SDS011;19080;51.750;5.888;2023-08-06T07:53:38;13.15;;;12.00;;
32319;SDS011;19080;51.750;5.888;2023-08-06T07:56:04;14.38;;;12.93;;
32319;SDS011;19080;51.750;5.888;2023-08-06T07:58:31;14.05;;;12.65;;
32319;SDS011;19080;51.750;5.888;2023-08-06T08:00:58;11.52;;;10.48;;
32319;SDS011;19080;51.750;5.888;2023-08-06T08:03:26;10.60;;;9.50;;
32319;SDS011;19080;51.750;5.888;2023-08-06T08:05:54;10.50;;;9.40;;
32319;SDS011;19080;51.750;5.888;2023-08-06T08:08:24;10.68;;;8.50;;
32319;SDS011;19080;51.750;5.888;2023-08-06T08:10:51;8.35;;;7.57;;
32319;SDS011;19080;51.750;5.888;2023-08-06T08:13:18;7.82;;;7.18;;
32319;SDS011;19080;51.750;5.888;2023-08-06T08:15:45;8.38;;;7.50;;
32319;SDS011;19080;51.750;5.888;2023-08-06T08:18:11;8.52;;;7.40;;
32319;SDS011;19080;51.750;5.888;2023-08-06T08:20:38;6.30;;;5.80;;
32319;SDS011;19080;51.750;5.888;2023-08-06T08:23:04;5.60;;;5.10;;
32319;SDS011;19080;51.750;5.888;2023-08-06T08:25:31;4.07;;;3.78;;
32319;SDS011;19080;51.750;5.888;2023-08-06T08:27:58;3.70;;;3.40;;
32319;SDS011;19080;51.750;5.888;2023-08-06T08:30:25;2.75;;;2.55;;
32319;SDS011;19080;51.750;5.888;2023-08-06T08:32:52;2.75;;;2.45;;
32319;SDS011;19080;51.750;5.888;2023-08-06T08:35:19;2.83;;;2.22;;
32319;SDS011;19080;51.750;5.888;2023-08-06T08:37:46;3.45;;;2.78;;
32319;SDS011;19080;51.750;5.888;2023-08-06T08:40:13;3.70;;;3.40;;
32319;SDS011;19080;51.750;5.888;2023-08-06T08:42:40;4.40;;;4.00;;
32319;SDS011;19080;51.750;5.888;2023-08-06T08:45:12;4.90;;;4.40;;
32319;SDS011;19080;51.750;5.888;2023-08-06T08:47:42;4.50;;;4.10;;
32319;SDS011;19080;51.750;5.888;2023-08-06T08:50:09;4.60;;;4.20;;
32319;SDS011;19080;51.750;5.888;2023-08-06T08:52:41;4.10;;;3.80;;
32319;SDS011;19080;51.750;5.888;2023-08-06T08:55:11;4.45;;;4.15;;
32319;SDS011;19080;51.750;5.888;2023-08-06T08:57:40;5.93;;;5.43;;
32319;SDS011;19080;51.750;5.888;2023-08-06T09:00:06;7.47;;;6.72;;
32319;SDS011;19080;51.750;5.888;2023-08-06T09:02:33;7.35;;;6.28;;
32319;SDS011;19080;51.750;5.888;2023-08-06T09:05:01;11.65;;;9.65;;
32319;SDS011;19080;51.750;5.888;2023-08-06T09:07:35;12.73;;;11.50;;
32319;SDS011;19080;51.750;5.888;2023-08-06T09:10:05;15.40;;;13.57;;
32319;SDS011;19080;51.750;5.888;2023-08-06T09:12:36;9.82;;;8.82;;
32319;SDS011;19080;51.750;5.888;2023-08-06T09:15:04;6.82;;;4.82;;
32319;SDS011;19080;51.750;5.888;2023-08-06T09:17:31;10.50;;;6.57;;
32319;SDS011;19080;51.750;5.888;2023-08-06T09:19:57;5.95;;;3.90;;
32319;SDS011;19080;51.750;5.888;2023-08-06T09:22:24;4.25;;;3.08;;
32319;SDS011;19080;51.750;5.888;2023-08-06T09:24:51;5.00;;;1.95;;
32319;SDS011;19080;51.750;5.888;2023-08-06T09:27:17;5.35;;;2.40;;
32319;SDS011;19080;51.750;5.888;2023-08-06T09:29:45;9.80;;;2.83;;
32319;SDS011;19080;51.750;5.888;2023-08-06T09:32:12;8.70;;;2.72;;
32319;SDS011;19080;51.750;5.888;2023-08-06T09:34:41;2.95;;;2.50;;
32319;SDS011;19080;51.750;5.888;2023-08-06T09:37:08;3.88;;;2.63;;
32319;SDS011;19080;51.750;5.888;2023-08-06T09:39:38;3.22;;;2.80;;
32319;SDS011;19080;51.750;5.888;2023-08-06T09:42:07;2.90;;;2.70;;
32319;SDS011;19080;51.750;5.888;2023-08-06T09:44:34;3.10;;;2.90;;
32319;SDS011;19080;51.750;5.888;2023-08-06T09:47:02;3.05;;;2.67;;
32319;SDS011;19080;51.750;5.888;2023-08-06T09:52:00;4.57;;;2.83;;
32319;SDS011;19080;51.750;5.888;2023-08-06T09:54:27;3.30;;;2.97;;
32319;SDS011;19080;51.750;5.888;2023-08-06T09:56:55;4.63;;;2.50;;
32319;SDS011;19080;51.750;5.888;2023-08-06T09:59:23;3.20;;;2.88;;
32319;SDS011;19080;51.750;5.888;2023-08-06T10:01:50;3.67;;;3.10;;
32319;SDS011;19080;51.750;5.888;2023-08-06T10:04:19;3.22;;;2.92;;
32319;SDS011;19080;51.750;5.888;2023-08-06T10:06:51;3.50;;;3.00;;
32319;SDS011;19080;51.750;5.888;2023-08-06T10:09:19;3.40;;;2.78;;
32319;SDS011;19080;51.750;5.888;2023-08-06T10:11:50;2.75;;;2.47;;
32319;SDS011;19080;51.750;5.888;2023-08-06T10:14:21;2.75;;;2.38;;
32319;SDS011;19080;51.750;5.888;2023-08-06T10:19:20;2.67;;;2.47;;
32319;SDS011;19080;51.750;5.888;2023-08-06T10:27:30;3.10;;;2.75;;
32319;SDS011;19080;51.750;5.888;2023-08-06T10:30:45;3.25;;;2.95;;
32319;SDS011;19080;51.750;5.888;2023-08-06T10:32:59;3.42;;;2.88;;
32319;SDS011;19080;51.750;5.888;2023-08-06T10:38:16;5.75;;;3.20;;
32319;SDS011;19080;51.750;5.888;2023-08-06T10:40:49;4.95;;;3.33;;
32319;SDS011;19080;51.750;5.888;2023-08-06T10:43:25;5.95;;;3.53;;
32319;SDS011;19080;51.750;5.888;2023-08-06T10:45:53;3.47;;;3.17;;
32319;SDS011;19080;51.750;5.888;2023-08-06T10:48:36;4.00;;;3.65;;
32319;SDS011;19080;51.750;5.888;2023-08-06T10:51:09;6.25;;;3.65;;
32319;SDS011;19080;51.750;5.888;2023-08-06T10:53:38;4.18;;;3.78;;
32319;SDS011;19080;51.750;5.888;2023-08-06T10:56:12;5.45;;;3.90;;
32319;SDS011;19080;51.750;5.888;2023-08-06T10:58:44;4.35;;;3.85;;
32319;SDS011;19080;51.750;5.888;2023-08-06T11:01:12;3.33;;;3.03;;
32319;SDS011;19080;51.750;5.888;2023-08-06T11:03:41;7.82;;;3.90;;
32319;SDS011;19080;51.750;5.888;2023-08-06T11:06:09;5.80;;;3.53;;
32319;SDS011;19080;51.750;5.888;2023-08-06T11:08:38;5.00;;;3.60;;
32319;SDS011;19080;51.750;5.888;2023-08-06T11:11:08;4.80;;;3.83;;
32319;SDS011;19080;51.750;5.888;2023-08-06T11:13:43;6.75;;;4.22;;
32319;SDS011;19080;51.750;5.888;2023-08-06T11:16:16;4.60;;;3.42;;
32319;SDS011;19080;51.750;5.888;2023-08-06T11:18:45;3.83;;;3.45;;
32319;SDS011;19080;51.750;5.888;2023-08-06T11:21:12;5.55;;;3.60;;
32319;SDS011;19080;51.750;5.888;2023-08-06T11:23:42;4.32;;;3.58;;
32319;SDS011;19080;51.750;5.888;2023-08-06T11:26:09;5.10;;;3.70;;
32319;SDS011;19080;51.750;5.888;2023-08-06T11:28:36;4.47;;;4.05;;
32319;SDS011;19080;51.750;5.888;2023-08-06T11:31:02;7.47;;;4.22;;
32319;SDS011;19080;51.750;5.888;2023-08-06T11:33:30;6.85;;;4.72;;
32319;SDS011;19080;51.750;5.888;2023-08-06T11:35:59;6.38;;;5.03;;
32319;SDS011;19080;51.750;5.888;2023-08-06T11:38:28;8.25;;;5.18;;
32319;SDS011;19080;51.750;5.888;2023-08-06T11:40:55;9.13;;;5.55;;
32319;SDS011;19080;51.750;5.888;2023-08-06T11:43:22;7.10;;;5.57;;
32319;SDS011;19080;51.750;5.888;2023-08-06T11:45:49;8.70;;;5.20;;
32319;SDS011;19080;51.750;5.888;2023-08-06T11:48:17;7.22;;;5.20;;
32319;SDS011;19080;51.750;5.888;2023-08-06T11:50:44;8.40;;;4.95;;
32319;SDS011;19080;51.750;5.888;2023-08-06T11:53:12;9.13;;;4.93;;
32319;SDS011;19080;51.750;5.888;2023-08-06T11:55:41;6.30;;;4.63;;
32319;SDS011;19080;51.750;5.888;2023-08-06T11:58:09;7.97;;;3.95;;
32319;SDS011;19080;51.750;5.888;2023-08-06T12:00:38;11.30;;;4.20;;
32319;SDS011;19080;51.750;5.888;2023-08-06T12:03:05;5.78;;;3.50;;
32319;SDS011;19080;51.750;5.888;2023-08-06T12:05:32;7.53;;;4.00;;
32319;SDS011;19080;51.750;5.888;2023-08-06T12:08:00;7.32;;;3.33;;
32319;SDS011;19080;51.750;5.888;2023-08-06T12:10:29;4.72;;;3.58;;
32319;SDS011;19080;51.750;5.888;2023-08-06T12:12:57;6.60;;;3.63;;
32319;SDS011;19080;51.750;5.888;2023-08-06T12:15:24;7.53;;;4.00;;
32319;SDS011;19080;51.750;5.888;2023-08-06T12:17:51;7.70;;;3.70;;
32319;SDS011;19080;51.750;5.888;2023-08-06T12:20:18;6.30;;;3.25;;
32319;SDS011;19080;51.750;5.888;2023-08-06T12:22:44;4.50;;;3.25;;
32319;SDS011;19080;51.750;5.888;2023-08-06T12:25:12;7.75;;;3.97;;
32319;SDS011;19080;51.750;5.888;2023-08-06T12:27:40;6.68;;;3.80;;
32319;SDS011;19080;51.750;5.888;2023-08-06T12:30:08;5.75;;;3.88;;
32319;SDS011;19080;51.750;5.888;2023-08-06T12:32:35;7.22;;;3.97;;
32319;SDS011;19080;51.750;5.888;2023-08-06T12:35:04;6.57;;;3.67;;
32319;SDS011;19080;51.750;5.888;2023-08-06T12:37:33;4.75;;;3.45;;
32319;SDS011;19080;51.750;5.888;2023-08-06T12:40:00;7.03;;;3.85;;
32319;SDS011;19080;51.750;5.888;2023-08-06T12:42:47;5.53;;;4.40;;
32319;SDS011;19080;51.750;5.888;2023-08-06T12:45:15;7.72;;;4.40;;
32319;SDS011;19080;51.750;5.888;2023-08-06T12:47:42;8.35;;;4.50;;
32319;SDS011;19080;51.750;5.888;2023-08-06T12:50:09;6.80;;;4.22;;
32319;SDS011;19080;51.750;5.888;2023-08-06T12:52:35;4.65;;;3.42;;
32319;SDS011;19080;51.750;5.888;2023-08-06T12:55:02;7.05;;;3.75;;
32319;SDS011;19080;51.750;5.888;2023-08-06T12:57:29;6.00;;;3.50;;
32319;SDS011;19080;51.750;5.888;2023-08-06T13:00:16;5.35;;;3.25;;
32319;SDS011;19080;51.750;5.888;2023-08-06T13:02:43;6.63;;;3.40;;
32319;SDS011;19080;51.750;5.888;2023-08-06T13:05:10;5.55;;;3.10;;
32319;SDS011;19080;51.750;5.888;2023-08-06T13:07:37;5.65;;;3.33;;
32319;SDS011;19080;51.750;5.888;2023-08-06T13:10:03;7.53;;;3.33;;
32319;SDS011;19080;51.750;5.888;2023-08-06T13:12:31;5.07;;;2.75;;
32319;SDS011;19080;51.750;5.888;2023-08-06T13:14:58;4.03;;;3.08;;
32319;SDS011;19080;51.750;5.888;2023-08-06T13:17:25;5.80;;;3.42;;
32319;SDS011;19080;51.750;5.888;2023-08-06T13:19:53;4.75;;;2.97;;
32319;SDS011;19080;51.750;5.888;2023-08-06T13:22:20;4.72;;;3.30;;
32319;SDS011;19080;51.750;5.888;2023-08-06T13:24:46;5.35;;;2.92;;
32319;SDS011;19080;51.750;5.888;2023-08-06T13:27:13;4.03;;;2.42;;
32319;SDS011;19080;51.750;5.888;2023-08-06T13:29:39;3.70;;;2.53;;
32319;SDS011;19080;51.750;5.888;2023-08-06T13:32:06;5.20;;;2.70;;
32319;SDS011;19080;51.750;5.888;2023-08-06T13:34:33;6.43;;;2.70;;
32319;SDS011;19080;51.750;5.888;2023-08-06T13:36:59;4.55;;;3.10;;
32319;SDS011;19080;51.750;5.888;2023-08-06T13:39:27;6.85;;;2.72;;
32319;SDS011;19080;51.750;5.888;2023-08-06T13:41:54;6.35;;;3.15;;
32319;SDS011;19080;51.750;5.888;2023-08-06T13:44:20;5.47;;;2.80;;
32319;SDS011;19080;51.750;5.888;2023-08-06T13:46:47;4.05;;;2.10;;
32319;SDS011;19080;51.750;5.888;2023-08-06T13:49:14;2.53;;;2.00;;
32319;SDS011;19080;51.750;5.888;2023-08-06T13:51:40;4.18;;;2.08;;
32319;SDS011;19080;51.750;5.888;2023-08-06T13:54:07;5.72;;;2.58;;
32319;SDS011;19080;51.750;5.888;2023-08-06T13:56:34;4.00;;;2.25;;
32319;SDS011;19080;51.750;5.888;2023-08-06T13:59:01;3.33;;;1.80;;
32319;SDS011;19080;51.750;5.888;2023-08-06T14:01:28;4.50;;;1.95;;
32319;SDS011;19080;51.750;5.888;2023-08-06T14:04:14;5.00;;;2.20;;
32319;SDS011;19080;51.750;5.888;2023-08-06T14:06:40;4.55;;;1.98;;
32319;SDS011;19080;51.750;5.888;2023-08-06T14:09:07;6.57;;;2.40;;
32319;SDS011;19080;51.750;5.888;2023-08-06T14:11:34;1.95;;;1.80;;
32319;SDS011;19080;51.750;5.888;2023-08-06T14:14:01;2.75;;;1.55;;
32319;SDS011;19080;51.750;5.888;2023-08-06T14:16:29;3.47;;;2.03;;
32319;SDS011;19080;51.750;5.888;2023-08-06T14:18:58;4.50;;;1.73;;
32319;SDS011;19080;51.750;5.888;2023-08-06T14:21:25;5.40;;;2.28;;
32319;SDS011;19080;51.750;5.888;2023-08-06T14:23:51;3.25;;;1.90;;
32319;SDS011;19080;51.750;5.888;2023-08-06T14:26:18;3.80;;;1.70;;
32319;SDS011;19080;51.750;5.888;2023-08-06T14:28:45;3.83;;;1.90;;
32319;SDS011;19080;51.750;5.888;2023-08-06T14:31:12;3.40;;;2.17;;
32319;SDS011;19080;51.750;5.888;2023-08-06T14:33:38;4.82;;;2.03;;
32319;SDS011;19080;51.750;5.888;2023-08-06T14:36:05;4.10;;;2.22;;
32319;SDS011;19080;51.750;5.888;2023-08-06T14:38:32;3.80;;;2.33;;
32319;SDS011;19080;51.750;5.888;2023-08-06T14:41:06;2.65;;;2.13;;
32319;SDS011;19080;51.750;5.888;2023-08-06T14:43:33;4.90;;;2.40;;
32319;SDS011;19080;51.750;5.888;2023-08-06T14:45:59;4.40;;;2.30;;
32319;SDS011;19080;51.750;5.888;2023-08-06T14:48:26;3.83;;;2.38;;
32319;SDS011;19080;51.750;5.888;2023-08-06T14:50:53;3.08;;;2.20;;
32319;SDS011;19080;51.750;5.888;2023-08-06T14:53:20;3.03;;;2.45;;
32319;SDS011;19080;51.750;5.888;2023-08-06T14:55:47;4.47;;;2.58;;
32319;SDS011;19080;51.750;5.888;2023-08-06T14:58:14;3.25;;;2.15;;
32319;SDS011;19080;51.750;5.888;2023-08-06T15:00:41;3.88;;;2.20;;